Gorham, New York
Current Conditions -  °F | °C
As of 12:53 PM on Thursday 23 Oct 2014 (Local Time) from KPEO Reporting Station
Overcast Overcast  
Wind Chill: 52°   Ceiling: 2200
Heat Index: 52°   Visibility: 10mi
Dew Point: 42°   Wind: 15mph
Humidity: 69%   Direction: 320°NW
Pressure: 29.98"   Gusts: 24mph
Location:  42.8°N, 77.13°W
Report Text: KPEO 231653Z AUTO 32013G21KT 10SM OVC022 11/06 A2998 RMK AO2 SLP155 T01110056
Loading
Personal Weather Stations






























Interactive Weather Map
Tropical Storm Tracking
New forecast layout! Learn more

10-Day Weather Forecast

Advertisements
Track Severe Weather on mobile